Portada
METAR-TAF:

METAR-TAF

Aeroports :

Bukharà, Uzbekistan

latitud: 39-46-30N, longitud: 064-29-00E, altitud: 229 m

Observació

L'informe es va fer fa 21 minuts, a les 08:00 UTC
Vent 6 kt del Nord-Est, variant entre Nord i Est
Temperatura 15°C
Humitat 36%
Pressió 1025 hPa
Visibilitat 10 km o més
sense núvols per sota de 1500 mi sense presència de cumulonimbus.

METAR: UTSB 120800Z 05006KT 010V090 CAVOK 15/00 Q1025 R01/CLRD70 NOSIG

Hora: 13:21 (08:21 UTC)

Pronòstic

L'informe es va fer fa 3 hores i 21 minuts, a les 05:00 UTC
Pronòstic vàlid del 12 a les 06 UTC al 13 a les 06 UTC
Vent 3 kt amb direcció variable
Visibilitat: 7000 m
Temporalment
l' 12 a les 06 UTC al 12 a les 15 UTC
Vent 10 kt del Nord
Temporalment
l' 12 a les 15 UTC al 12 a les 23 UTC
Vent 8 kt del Nord-Est
Visibilitat: 3000 m
boirina

TAF: UTSB 120500Z 1206/1306 VRB03KT 7000 NSC TEMPO 1206/1215 36010KT TEMPO 1215/1223 04008KT 3000 BR

Observacions i pronòstics meteorològics de més de 4000 aeroports (METAR i TAF).

Les estacions disponibles són els punts grocs i vermells al mapa.

Posi el ratolí al punt desitjat per veure el nom de l'estació.

Feu clic per veure les observacions i els pronòstics meteorològics.

Per canviar el mapa: feu clic els botons verds amb una creu de color negre per apropar; al botó verd amb un guió per allunyar la imatge; o en les fletxes verdes per a mapes adjacents.


METAR-TAF: